Time;durP1;ratioP1;P1;durP2;ratioP2;P2;SDS_P1;SDS_P2;PMS_P1;PMS_P2;Temp;Humidity;BMP_temperature;BMP_pressure;BME280_temperature;BME280_humidity;BME280_pressure;Samples;Min_cycle;Max_cycle;Signal;HPM_P1;HPM_P2
2024/04/17 00:01:51;;;;;;;3.70;3.35;;;;;;;;;;4963308;28;20094;-74
2024/04/17 00:04:17;;;;;;;5.10;3.25;;;;;;;;;;4937746;28;20051;-73
2024/04/17 00:06:43;;;;;;;8.10;3.13;;;;;;;;;;4943807;29;20102;-74
2024/04/17 00:09:09;;;;;;;7.53;3.30;;;;;;;;;;4961502;28;20034;-72
2024/04/17 00:11:35;;;;;;;6.72;2.85;;;;;;;;;;4942821;29;20456;-74
2024/04/17 00:14:01;;;;;;;4.05;2.95;;;;;;;;;;4944479;28;20095;-74
2024/04/17 00:16:27;;;;;;;7.25;3.35;;;;;;;;;;4959340;28;20050;-73
2024/04/17 00:18:52;;;;;;;9.50;3.95;;;;;;;;;;4967181;28;20046;-73
2024/04/17 00:21:18;;;;;;;3.13;2.83;;;;;;;;;;4960191;28;20579;-74
2024/04/17 00:23:44;;;;;;;4.57;3.00;;;;;;;;;;4957152;28;20440;-73
2024/04/17 00:26:10;;;;;;;6.78;2.75;;;;;;;;;;4963328;28;20557;-73
2024/04/17 00:28:36;;;;;;;5.45;3.30;;;;;;;;;;4972006;28;20138;-74
2024/04/17 00:31:02;;;;;;;4.03;3.00;;;;;;;;;;4937237;28;20035;-74
2024/04/17 00:33:28;;;;;;;5.60;2.92;;;;;;;;;;4969193;28;20575;-73
2024/04/17 00:35:53;;;;;;;5.05;3.35;;;;;;;;;;4959070;28;20043;-74
2024/04/17 00:38:19;;;;;;;8.95;3.42;;;;;;;;;;4961560;28;20113;-73
2024/04/17 00:40:45;;;;;;;4.95;3.40;;;;;;;;;;4961979;28;20058;-73
2024/04/17 00:43:11;;;;;;;4.47;3.20;;;;;;;;;;4959371;28;20053;-74
2024/04/17 00:45:41;;;;;;;4.97;3.55;;;;;;;;;;4967378;28;20038;-75
2024/04/17 00:48:07;;;;;;;9.70;2.93;;;;;;;;;;4941797;29;20096;-74
2024/04/17 00:50:33;;;;;;;2.85;2.65;;;;;;;;;;4952099;28;20283;-74
2024/04/17 00:52:59;;;;;;;3.47;2.92;;;;;;;;;;4960221;28;20555;-75
2024/04/17 00:55:25;;;;;;;2.60;2.40;;;;;;;;;;4945366;28;20055;-73
2024/04/17 00:57:51;;;;;;;3.53;2.70;;;;;;;;;;4947745;28;20471;-74
2024/04/17 01:00:16;;;;;;;4.88;3.00;;;;;;;;;;4944306;28;20405;-74
2024/04/17 01:02:42;;;;;;;3.53;2.97;;;;;;;;;;4964853;28;20049;-74
2024/04/17 01:05:08;;;;;;;8.30;3.30;;;;;;;;;;4948541;28;20074;-74
2024/04/17 01:07:34;;;;;;;5.93;2.80;;;;;;;;;;4962675;28;20065;-72
2024/04/17 01:10:00;;;;;;;3.58;3.28;;;;;;;;;;4957564;28;20043;-74
2024/04/17 01:12:26;;;;;;;4.72;3.08;;;;;;;;;;4959648;28;20047;-74
2024/04/17 01:14:51;;;;;;;4.60;2.72;;;;;;;;;;4945553;29;20062;-74
2024/04/17 01:17:17;;;;;;;3.85;2.88;;;;;;;;;;4963797;28;20412;-73
2024/04/17 01:19:43;;;;;;;5.50;3.35;;;;;;;;;;4962328;28;20126;-74
2024/04/17 01:22:09;;;;;;;7.80;3.53;;;;;;;;;;4952749;28;20153;-72
2024/04/17 01:24:35;;;;;;;5.20;2.97;;;;;;;;;;4962387;28;20043;-73
2024/04/17 01:27:01;;;;;;;7.97;3.35;;;;;;;;;;4949502;29;20515;-74
2024/04/17 01:29:26;;;;;;;5.03;2.92;;;;;;;;;;4956541;28;20043;-74
2024/04/17 01:31:52;;;;;;;3.33;3.03;;;;;;;;;;4956703;29;20035;-72
2024/04/17 01:34:18;;;;;;;3.08;2.88;;;;;;;;;;4960937;28;20558;-72
2024/04/17 01:36:44;;;;;;;3.50;2.58;;;;;;;;;;4965902;28;20567;-74
2024/04/17 01:39:10;;;;;;;5.47;3.00;;;;;;;;;;4965462;28;20105;-73
2024/04/17 01:41:35;;;;;;;3.47;3.10;;;;;;;;;;4960670;28;20050;-75
2024/04/17 01:44:01;;;;;;;11.57;3.25;;;;;;;;;;4969906;28;20575;-74
2024/04/17 01:46:27;;;;;;;3.30;2.90;;;;;;;;;;4942338;28;20043;-74
2024/04/17 01:48:53;;;;;;;4.50;3.40;;;;;;;;;;4962459;28;20098;-75
2024/04/17 01:51:19;;;;;;;7.70;3.35;;;;;;;;;;4904569;28;20046;-74
2024/04/17 01:53:45;;;;;;;4.38;3.08;;;;;;;;;;4936665;28;20102;-74
2024/04/17 01:56:11;;;;;;;5.93;3.60;;;;;;;;;;4921341;28;20105;-74
2024/04/17 01:58:37;;;;;;;5.40;3.40;;;;;;;;;;4961515;28;20446;-74
2024/04/17 02:01:04;;;;;;;6.38;3.28;;;;;;;;;;4958550;28;20047;-75
2024/04/17 02:03:29;;;;;;;8.10;3.70;;;;;;;;;;4956957;28;20190;-73
2024/04/17 02:05:55;;;;;;;7.07;3.10;;;;;;;;;;4961537;28;20122;-74
2024/04/17 02:08:21;;;;;;;4.68;2.97;;;;;;;;;;4961293;28;20047;-73
2024/04/17 02:10:47;;;;;;;12.30;3.42;;;;;;;;;;4943240;28;20030;-74
2024/04/17 02:13:12;;;;;;;3.85;3.38;;;;;;;;;;4957513;28;20047;-75
2024/04/17 02:15:38;;;;;;;4.00;3.55;;;;;;;;;;4965109;28;20041;-75
2024/04/17 02:18:04;;;;;;;9.02;2.90;;;;;;;;;;4961365;28;20047;-75
2024/04/17 02:20:30;;;;;;;4.80;3.72;;;;;;;;;;4960793;28;20534;-74
2024/04/17 02:22:56;;;;;;;4.60;3.35;;;;;;;;;;4951063;28;20055;-74
2024/04/17 02:25:22;;;;;;;8.52;3.35;;;;;;;;;;4970671;28;20043;-74
2024/04/17 02:27:48;;;;;;;6.00;3.10;;;;;;;;;;4950699;28;20035;-73
2024/04/17 02:30:14;;;;;;;5.97;3.40;;;;;;;;;;4964632;28;20061;-74
2024/04/17 02:32:39;;;;;;;3.45;3.05;;;;;;;;;;4961507;28;20035;-76
2024/04/17 02:35:05;;;;;;;5.25;3.30;;;;;;;;;;4950115;29;20427;-75
2024/04/17 02:37:31;;;;;;;4.30;3.30;;;;;;;;;;4966191;28;20039;-73
2024/04/17 02:39:57;;;;;;;4.78;3.40;;;;;;;;;;4965271;28;20078;-74
2024/04/17 02:42:23;;;;;;;7.13;3.95;;;;;;;;;;4963993;28;20046;-75
2024/04/17 02:44:48;;;;;;;5.55;3.03;;;;;;;;;;4946364;28;20043;-75
2024/04/17 02:47:14;;;;;;;5.95;3.80;;;;;;;;;;4950603;28;20039;-73
2024/04/17 02:49:40;;;;;;;9.52;3.17;;;;;;;;;;4967946;28;20043;-74
2024/04/17 02:52:06;;;;;;;8.35;4.00;;;;;;;;;;4963354;28;20039;-74
2024/04/17 02:54:31;;;;;;;6.30;3.15;;;;;;;;;;4961967;28;20042;-74
2024/04/17 02:56:57;;;;;;;5.63;3.88;;;;;;;;;;4956889;28;20387;-74
2024/04/17 02:59:23;;;;;;;4.55;4.07;;;;;;;;;;4953917;28;20038;-74
2024/04/17 03:01:49;;;;;;;6.18;4.30;;;;;;;;;;4959768;28;20142;-74
2024/04/17 03:04:15;;;;;;;6.88;4.00;;;;;;;;;;4949863;28;20122;-74
2024/04/17 03:06:40;;;;;;;7.07;3.33;;;;;;;;;;4959510;28;20043;-75
2024/04/17 03:09:08;;;;;;;4.68;3.92;;;;;;;;;;4947929;28;20132;-75
2024/04/17 03:11:33;;;;;;;5.22;3.83;;;;;;;;;;4954876;28;20500;-75
2024/04/17 03:14:00;;;;;;;4.28;3.97;;;;;;;;;;4934184;29;20058;-75
2024/04/17 03:16:25;;;;;;;5.20;4.03;;;;;;;;;;4932505;28;20049;-74
2024/04/17 03:18:51;;;;;;;10.35;4.30;;;;;;;;;;4915669;28;20054;-74
2024/04/17 03:21:17;;;;;;;4.88;4.43;;;;;;;;;;4918315;28;20066;-76
2024/04/17 03:23:43;;;;;;;7.03;3.38;;;;;;;;;;4961581;28;20047;-75
2024/04/17 03:26:09;;;;;;;5.95;4.25;;;;;;;;;;4964403;28;20154;-74
2024/04/17 03:28:35;;;;;;;4.63;3.75;;;;;;;;;;4960540;28;20035;-73
2024/04/17 03:31:01;;;;;;;6.43;4.63;;;;;;;;;;4963295;28;20061;-74
2024/04/17 03:33:26;;;;;;;5.90;3.55;;;;;;;;;;4963941;28;20155;-72
2024/04/17 03:35:58;;;;;;;7.85;4.25;;;;;;;;;;4963486;28;20098;-73
2024/04/17 03:38:25;;;;;;;3.80;3.40;;;;;;;;;;4960378;28;20065;-73
2024/04/17 03:40:51;;;;;;;4.20;3.83;;;;;;;;;;4958437;28;20051;-75
2024/04/17 03:43:17;;;;;;;6.68;4.00;;;;;;;;;;4960070;28;20046;-73
2024/04/17 03:45:42;;;;;;;5.03;3.92;;;;;;;;;;4964681;28;20051;-74
2024/04/17 03:48:08;;;;;;;6.35;4.15;;;;;;;;;;4958027;28;20035;-74
2024/04/17 03:50:34;;;;;;;8.13;3.92;;;;;;;;;;4949995;28;20049;-74
2024/04/17 03:53:00;;;;;;;10.13;4.20;;;;;;;;;;4962042;28;20039;-76
2024/04/17 03:55:26;;;;;;;5.20;4.25;;;;;;;;;;4957349;28;20107;-75
2024/04/17 03:57:52;;;;;;;7.55;4.93;;;;;;;;;;4963641;28;20055;-75
2024/04/17 04:00:18;;;;;;;9.60;6.47;;;;;;;;;;4948252;28;20054;-75
2024/04/17 04:02:43;;;;;;;7.90;6.10;;;;;;;;;;4961735;28;20041;-74
2024/04/17 04:05:09;;;;;;;8.20;5.20;;;;;;;;;;4944636;28;20186;-74
2024/04/17 04:07:35;;;;;;;5.90;4.30;;;;;;;;;;4968052;28;20043;-74
2024/04/17 04:10:01;;;;;;;5.53;4.18;;;;;;;;;;4962335;28;20127;-74
2024/04/17 04:12:29;;;;;;;10.25;4.97;;;;;;;;;;4952129;28;20092;-72
2024/04/17 04:14:55;;;;;;;6.25;4.60;;;;;;;;;;4962636;28;20082;-74
2024/04/17 04:17:21;;;;;;;6.13;4.05;;;;;;;;;;4954308;28;20046;-74
2024/04/17 04:19:47;;;;;;;7.15;4.70;;;;;;;;;;4967363;28;20045;-73
2024/04/17 04:22:13;;;;;;;5.35;4.78;;;;;;;;;;4966123;28;20084;-73
2024/04/17 04:24:40;;;;;;;10.90;5.18;;;;;;;;;;4966723;28;20039;-73
2024/04/17 04:27:05;;;;;;;8.60;6.22;;;;;;;;;;4950973;28;20539;-74
2024/04/17 04:29:31;;;;;;;5.32;4.28;;;;;;;;;;4953543;28;20130;-73
2024/04/17 04:31:57;;;;;;;7.40;4.45;;;;;;;;;;4946134;28;20031;-73
2024/04/17 04:34:23;;;;;;;7.05;4.85;;;;;;;;;;4969359;28;20058;-74
2024/04/17 04:36:49;;;;;;;11.68;5.93;;;;;;;;;;4973475;28;20050;-75
2024/04/17 04:39:14;;;;;;;9.27;5.32;;;;;;;;;;4939552;28;20063;-76
2024/04/17 04:41:40;;;;;;;6.22;5.30;;;;;;;;;;4962380;28;20389;-76
2024/04/17 04:44:06;;;;;;;6.07;5.10;;;;;;;;;;4959248;28;20071;-75
2024/04/17 04:46:32;;;;;;;5.65;5.03;;;;;;;;;;4958312;28;20050;-76
2024/04/17 04:48:58;;;;;;;9.35;5.47;;;;;;;;;;4970070;28;20595;-75
2024/04/17 04:51:23;;;;;;;7.32;5.18;;;;;;;;;;4958557;28;20484;-75
2024/04/17 04:53:49;;;;;;;6.47;5.53;;;;;;;;;;4954653;28;20055;-75
2024/04/17 04:56:15;;;;;;;8.02;5.57;;;;;;;;;;4943112;28;20090;-72
2024/04/17 04:58:42;;;;;;;6.43;5.20;;;;;;;;;;4960426;28;20046;-73
2024/04/17 05:01:08;;;;;;;7.88;5.50;;;;;;;;;;4964575;28;20122;-73
2024/04/17 05:03:34;;;;;;;7.95;5.57;;;;;;;;;;4956335;28;20460;-72
2024/04/17 05:05:59;;;;;;;9.43;6.22;;;;;;;;;;4969914;28;20419;-73
2024/04/17 05:08:25;;;;;;;7.82;5.70;;;;;;;;;;4964558;28;20038;-73
2024/04/17 05:10:51;;;;;;;9.52;5.68;;;;;;;;;;4961826;28;20040;-72
2024/04/17 05:13:17;;;;;;;5.97;5.38;;;;;;;;;;4936641;29;20074;-74
2024/04/17 05:15:43;;;;;;;9.15;5.53;;;;;;;;;;4960648;28;20034;-73
2024/04/17 05:18:08;;;;;;;6.35;4.80;;;;;;;;;;4965498;28;20043;-73
2024/04/17 05:20:34;;;;;;;5.55;4.85;;;;;;;;;;4959761;28;20058;-72
2024/04/17 05:23:00;;;;;;;5.75;4.78;;;;;;;;;;4959445;28;20582;-73
2024/04/17 05:25:26;;;;;;;6.18;5.57;;;;;;;;;;4950836;28;20888;-73
2024/04/17 05:27:52;;;;;;;8.27;5.20;;;;;;;;;;4963980;28;20042;-72
2024/04/17 05:30:18;;;;;;;9.25;5.13;;;;;;;;;;4958790;28;20046;-72
2024/04/17 05:32:45;;;;;;;6.35;5.13;;;;;;;;;;4959266;28;20042;-72
2024/04/17 05:35:11;;;;;;;9.38;5.45;;;;;;;;;;4953965;28;20039;-72
2024/04/17 05:37:37;;;;;;;7.60;5.15;;;;;;;;;;4958972;28;20050;-71
2024/04/17 05:40:04;;;;;;;9.93;5.05;;;;;;;;;;4959916;28;20047;-72
2024/04/17 05:42:30;;;;;;;8.38;5.50;;;;;;;;;;4962834;28;20047;-73
2024/04/17 05:44:55;;;;;;;6.93;3.63;;;;;;;;;;4958443;28;20059;-73
2024/04/17 05:47:21;;;;;;;7.28;5.20;;;;;;;;;;4959852;28;20099;-71
2024/04/17 05:49:47;;;;;;;7.28;4.85;;;;;;;;;;4960110;28;20039;-73
2024/04/17 05:52:13;;;;;;;7.03;5.20;;;;;;;;;;4952333;28;20593;-72
2024/04/17 05:54:39;;;;;;;10.90;4.88;;;;;;;;;;4955881;28;20087;-72
2024/04/17 05:57:05;;;;;;;8.98;5.80;;;;;;;;;;4938616;28;20119;-73
2024/04/17 05:59:31;;;;;;;7.28;5.72;;;;;;;;;;4955966;28;20043;-71
2024/04/17 06:02:00;;;;;;;12.40;5.57;;;;;;;;;;4961376;28;20546;-72
2024/04/17 06:04:26;;;;;;;9.57;5.13;;;;;;;;;;4941705;28;20495;-73
2024/04/17 06:06:51;;;;;;;6.32;5.60;;;;;;;;;;4962667;28;20046;-74
2024/04/17 06:09:17;;;;;;;8.63;5.97;;;;;;;;;;4961081;28;20094;-74
2024/04/17 06:11:44;;;;;;;6.32;5.60;;;;;;;;;;4960279;28;20031;-73
2024/04/17 06:14:09;;;;;;;8.10;6.03;;;;;;;;;;4955182;28;20070;-71
2024/04/17 06:16:35;;;;;;;9.57;6.57;;;;;;;;;;4960347;28;20045;-71
2024/04/17 06:19:01;;;;;;;8.80;5.97;;;;;;;;;;4959612;28;20059;-72
2024/04/17 06:21:27;;;;;;;6.20;5.70;;;;;;;;;;4957333;28;20063;-71
2024/04/17 06:23:56;;;;;;;7.63;5.57;;;;;;;;;;4943697;29;20058;-73
2024/04/17 06:26:22;;;;;;;7.18;5.07;;;;;;;;;;4955698;28;20039;-72
2024/04/17 06:28:47;;;;;;;6.43;5.43;;;;;;;;;;4964003;28;20083;-73
2024/04/17 06:31:14;;;;;;;7.35;5.60;;;;;;;;;;4961766;28;20126;-72
2024/04/17 06:33:39;;;;;;;6.75;6.00;;;;;;;;;;4954182;28;20197;-73
2024/04/17 06:36:06;;;;;;;8.90;6.50;;;;;;;;;;4961544;28;20035;-73
2024/04/17 06:38:31;;;;;;;6.47;5.97;;;;;;;;;;4944659;28;20074;-73
2024/04/17 06:40:57;;;;;;;6.32;5.70;;;;;;;;;;4957606;28;20067;-72
2024/04/17 06:43:23;;;;;;;7.35;5.60;;;;;;;;;;4964015;28;20463;-72
2024/04/17 06:45:49;;;;;;;6.35;4.70;;;;;;;;;;4960112;28;20042;-73
2024/04/17 06:48:15;;;;;;;5.70;5.20;;;;;;;;;;4942956;28;20039;-73
2024/04/17 06:50:41;;;;;;;5.07;4.65;;;;;;;;;;4956507;28;20137;-73
2024/04/17 06:53:07;;;;;;;7.15;5.00;;;;;;;;;;4941034;28;20054;-73
2024/04/17 06:55:33;;;;;;;5.05;4.35;;;;;;;;;;4958585;28;20527;-73
2024/04/17 06:57:59;;;;;;;4.47;4.07;;;;;;;;;;4944344;28;20101;-73
2024/04/17 07:00:32;;;;;;;5.00;4.60;;;;;;;;;;4944646;28;20118;-73
2024/04/17 07:02:58;;;;;;;6.15;4.80;;;;;;;;;;4948014;29;20040;-73
2024/04/17 07:05:25;;;;;;;5.68;4.55;;;;;;;;;;4946502;28;20043;-74
2024/04/17 07:07:50;;;;;;;5.15;4.65;;;;;;;;;;4959983;28;20192;-72
2024/04/17 07:10:16;;;;;;;5.18;4.68;;;;;;;;;;4959459;28;20035;-73
2024/04/17 07:12:42;;;;;;;5.18;4.68;;;;;;;;;;4941996;28;20109;-74
2024/04/17 07:15:09;;;;;;;5.75;5.25;;;;;;;;;;4947345;28;20045;-73
2024/04/17 07:17:35;;;;;;;6.05;5.30;;;;;;;;;;4939808;28;20050;-74
2024/04/17 07:20:00;;;;;;;5.43;4.93;;;;;;;;;;4952127;28;20035;-75
2024/04/17 07:22:26;;;;;;;6.22;5.35;;;;;;;;;;4961523;28;20428;-74
2024/04/17 07:24:52;;;;;;;5.97;4.90;;;;;;;;;;4960322;28;20537;-74
2024/04/17 07:27:18;;;;;;;6.40;5.50;;;;;;;;;;4961961;28;20039;-73
2024/04/17 07:29:45;;;;;;;7.57;4.85;;;;;;;;;;4934633;29;20050;-74
2024/04/17 07:32:10;;;;;;;5.53;4.38;;;;;;;;;;4932970;28;20043;-73
2024/04/17 07:34:37;;;;;;;5.53;4.47;;;;;;;;;;4961323;28;20137;-74
2024/04/17 07:37:04;;;;;;;4.55;4.15;;;;;;;;;;4963009;28;20187;-75
2024/04/17 07:39:30;;;;;;;4.97;4.60;;;;;;;;;;4952297;28;20062;-74
2024/04/17 07:41:56;;;;;;;5.05;4.35;;;;;;;;;;4964108;28;20043;-74
2024/04/17 07:44:21;;;;;;;4.90;4.50;;;;;;;;;;4962635;28;20047;-74
2024/04/17 07:46:48;;;;;;;7.43;5.10;;;;;;;;;;4962991;28;20101;-75
2024/04/17 07:49:17;;;;;;;5.68;4.75;;;;;;;;;;4966422;28;20046;-73
2024/04/17 07:51:43;;;;;;;6.00;4.80;;;;;;;;;;4958702;28;20034;-75
2024/04/17 07:54:08;;;;;;;5.43;4.90;;;;;;;;;;4964670;28;20050;-74
2024/04/17 07:56:34;;;;;;;5.18;4.50;;;;;;;;;;4961315;28;20499;-74
2024/04/17 07:59:00;;;;;;;6.63;5.90;;;;;;;;;;4947399;28;20046;-75
2024/04/17 08:01:26;;;;;;;6.75;6.05;;;;;;;;;;4968681;28;20140;-75
2024/04/17 08:03:53;;;;;;;5.60;4.70;;;;;;;;;;4941536;29;20043;-74
2024/04/17 08:06:20;;;;;;;6.75;5.90;;;;;;;;;;4966401;28;20042;-74
2024/04/17 08:08:47;;;;;;;6.45;5.00;;;;;;;;;;4962698;28;20035;-74
2024/04/17 08:11:13;;;;;;;6.72;5.20;;;;;;;;;;4962531;28;20515;-73
2024/04/17 08:13:39;;;;;;;8.73;6.30;;;;;;;;;;4956805;28;20061;-73
2024/04/17 08:16:04;;;;;;;5.40;4.90;;;;;;;;;;4965079;28;20066;-74
2024/04/17 08:18:30;;;;;;;5.65;5.15;;;;;;;;;;4943872;28;20478;-74
2024/04/17 08:20:56;;;;;;;8.02;5.30;;;;;;;;;;4965718;28;20404;-75
2024/04/17 08:23:22;;;;;;;5.78;5.38;;;;;;;;;;4959416;28;20058;-73
2024/04/17 08:25:48;;;;;;;7.15;6.38;;;;;;;;;;4960972;28;20109;-74
2024/04/17 08:28:14;;;;;;;9.73;5.95;;;;;;;;;;4961471;28;20039;-73
2024/04/17 08:30:40;;;;;;;10.65;7.20;;;;;;;;;;4964931;28;20595;-74
2024/04/17 08:33:06;;;;;;;8.80;6.57;;;;;;;;;;4961624;28;20082;-74
2024/04/17 08:35:35;;;;;;;7.57;5.53;;;;;;;;;;4958816;28;20047;-74
2024/04/17 08:38:01;;;;;;;6.53;5.93;;;;;;;;;;4952457;28;20769;-73
2024/04/17 08:40:27;;;;;;;7.20;6.03;;;;;;;;;;4963256;28;20181;-74
2024/04/17 08:42:53;;;;;;;5.97;5.55;;;;;;;;;;4944757;28;20117;-73
2024/04/17 08:45:22;;;;;;;6.85;6.25;;;;;;;;;;4958762;28;20130;-74
2024/04/17 08:47:48;;;;;;;6.75;6.03;;;;;;;;;;4930465;29;20050;-73
2024/04/17 08:50:14;;;;;;;6.03;5.53;;;;;;;;;;4917151;28;20042;-74
2024/04/17 08:52:40;;;;;;;8.73;5.80;;;;;;;;;;4953099;28;20643;-73
2024/04/17 08:55:05;;;;;;;9.60;6.00;;;;;;;;;;4965190;28;20526;-74
2024/04/17 08:57:31;;;;;;;6.00;5.50;;;;;;;;;;4962312;28;20109;-72
2024/04/17 09:00:16;;;;;;;6.18;5.68;;;;;;;;;;4957623;28;20043;-74
2024/04/17 09:02:42;;;;;;;5.40;5.00;;;;;;;;;;4949492;28;20544;-73
2024/04/17 09:05:08;;;;;;;6.07;5.57;;;;;;;;;;4964475;28;20031;-73
2024/04/17 09:07:35;;;;;;;6.25;5.65;;;;;;;;;;4960769;28;20164;-73
2024/04/17 09:10:01;;;;;;;6.18;5.72;;;;;;;;;;4954279;28;20081;-74
2024/04/17 09:12:31;;;;;;;6.18;5.57;;;;;;;;;;4950650;28;20039;-74
2024/04/17 09:14:59;;;;;;;6.32;5.68;;;;;;;;;;4958578;28;20058;-73
2024/04/17 09:17:24;;;;;;;8.02;5.82;;;;;;;;;;4949705;28;20814;-73
2024/04/17 09:19:50;;;;;;;7.72;6.00;;;;;;;;;;4957436;28;20042;-74
2024/04/17 09:22:16;;;;;;;10.48;5.75;;;;;;;;;;4951914;28;20066;-73
2024/04/17 09:24:42;;;;;;;7.07;6.45;;;;;;;;;;4932935;29;20070;-74
2024/04/17 09:27:10;;;;;;;6.63;6.13;;;;;;;;;;4961186;28;20042;-74
2024/04/17 09:29:36;;;;;;;7.15;6.50;;;;;;;;;;4959329;28;20049;-73
2024/04/17 09:32:02;;;;;;;7.07;6.45;;;;;;;;;;4941712;28;20451;-76
2024/04/17 09:34:30;;;;;;;9.77;7.20;;;;;;;;;;4941641;28;20055;-74
2024/04/17 09:36:56;;;;;;;8.25;7.43;;;;;;;;;;4964723;28;20419;-73
2024/04/17 09:39:23;;;;;;;8.90;8.10;;;;;;;;;;4940533;28;20055;-74
2024/04/17 09:41:48;;;;;;;8.23;7.30;;;;;;;;;;4960875;28;20054;-75
2024/04/17 09:44:14;;;;;;;10.02;8.35;;;;;;;;;;4951543;28;20051;-75
2024/04/17 09:46:41;;;;;;;9.48;8.57;;;;;;;;;;4936265;28;20466;-75
2024/04/17 09:49:33;;;;;;;8.98;7.70;;;;;;;;;;4964545;28;20039;-75
2024/04/17 09:52:00;;;;;;;8.60;7.80;;;;;;;;;;4954504;28;20031;-75
2024/04/17 09:54:26;;;;;;;9.20;7.40;;;;;;;;;;4947040;28;20109;-75
2024/04/17 09:56:52;;;;;;;7.50;6.93;;;;;;;;;;4961803;28;20039;-73
2024/04/17 09:59:19;;;;;;;8.25;7.45;;;;;;;;;;4963831;28;20038;-75
2024/04/17 10:01:45;;;;;;;8.18;6.90;;;;;;;;;;4950734;28;20062;-74
2024/04/17 10:04:11;;;;;;;11.43;6.32;;;;;;;;;;4960714;28;20045;-74
2024/04/17 10:06:38;;;;;;;8.68;7.82;;;;;;;;;;4926888;28;20049;-74
2024/04/17 10:09:05;;;;;;;7.97;6.80;;;;;;;;;;4948767;28;20455;-75
2024/04/17 10:11:31;;;;;;;7.28;6.68;;;;;;;;;;4965722;28;20034;-76
2024/04/17 10:13:56;;;;;;;6.55;5.80;;;;;;;;;;4960140;28;20066;-74
2024/04/17 10:16:22;;;;;;;6.25;5.75;;;;;;;;;;4927650;28;20562;-73
2024/04/17 10:18:48;;;;;;;5.90;5.43;;;;;;;;;;4962452;28;20051;-73
2024/04/17 10:21:20;;;;;;;6.70;6.10;;;;;;;;;;4941996;28;20062;-74
2024/04/17 10:23:57;;;;;;;6.75;6.28;;;;;;;;;;4947680;28;20049;-73
2024/04/17 10:26:23;;;;;;;5.93;5.40;;;;;;;;;;4945203;29;20039;-74
2024/04/17 10:28:52;;;;;;;7.18;5.70;;;;;;;;;;4961794;28;20366;-74
2024/04/17 10:31:17;;;;;;;6.22;5.68;;;;;;;;;;4963319;28;20138;-73
2024/04/17 10:33:43;;;;;;;10.65;6.60;;;;;;;;;;4947872;28;20074;-74
2024/04/17 10:36:09;;;;;;;6.85;6.03;;;;;;;;;;4957769;28;20493;-74
2024/04/17 10:38:35;;;;;;;6.07;5.20;;;;;;;;;;4959972;28;20035;-73
2024/04/17 10:41:02;;;;;;;7.10;5.72;;;;;;;;;;4956836;28;20050;-74
2024/04/17 10:43:29;;;;;;;6.57;5.97;;;;;;;;;;4961001;28;20471;-73
2024/04/17 10:46:15;;;;;;;6.25;5.63;;;;;;;;;;4961639;28;20046;-74
2024/04/17 10:48:50;;;;;;;7.78;5.93;;;;;;;;;;4959997;28;20068;-74
2024/04/17 10:51:16;;;;;;;6.80;6.18;;;;;;;;;;4959038;28;20047;-74
2024/04/17 10:53:43;;;;;;;6.40;5.80;;;;;;;;;;4961643;28;20051;-75
2024/04/17 10:56:09;;;;;;;6.40;5.80;;;;;;;;;;4952687;28;20519;-74
2024/04/17 10:58:35;;;;;;;6.65;6.05;;;;;;;;;;4952992;28;20091;-74
2024/04/17 11:01:03;;;;;;;7.13;6.43;;;;;;;;;;4956806;28;20412;-75
2024/04/17 11:03:29;;;;;;;6.75;6.18;;;;;;;;;;4964142;28;20051;-75
2024/04/17 11:05:55;;;;;;;7.15;6.03;;;;;;;;;;4947412;29;20062;-74
2024/04/17 11:08:21;;;;;;;8.52;7.50;;;;;;;;;;4955490;28;20536;-74
2024/04/17 11:10:47;;;;;;;7.45;6.15;;;;;;;;;;4942571;28;20069;-75
2024/04/17 11:13:16;;;;;;;6.20;5.53;;;;;;;;;;4946820;28;20137;-74
2024/04/17 11:15:42;;;;;;;10.40;5.85;;;;;;;;;;4964293;28;20416;-75
2024/04/17 11:18:08;;;;;;;6.25;5.75;;;;;;;;;;4943427;29;20047;-75
2024/04/17 11:20:38;;;;;;;6.97;6.13;;;;;;;;;;4966742;28;20130;-74
2024/04/17 11:23:07;;;;;;;6.88;5.90;;;;;;;;;;4946681;29;20066;-75
2024/04/17 11:25:40;;;;;;;7.53;6.38;;;;;;;;;;4961212;28;20132;-74
2024/04/17 11:28:09;;;;;;;7.35;6.50;;;;;;;;;;4963270;28;20047;-75
2024/04/17 11:30:35;;;;;;;9.48;7.07;;;;;;;;;;4958529;28;20540;-74
2024/04/17 11:33:02;;;;;;;9.63;6.90;;;;;;;;;;4956754;28;20047;-75
2024/04/17 11:35:28;;;;;;;8.65;6.68;;;;;;;;;;4965643;28;20043;-74
2024/04/17 11:37:54;;;;;;;9.82;7.10;;;;;;;;;;4963392;28;20125;-75
2024/04/17 11:40:20;;;;;;;8.32;7.63;;;;;;;;;;4930938;28;20054;-74
2024/04/17 11:42:46;;;;;;;8.82;7.22;;;;;;;;;;4948787;28;20039;-75
2024/04/17 11:45:13;;;;;;;9.07;7.05;;;;;;;;;;4964698;28;20031;-73
2024/04/17 11:47:39;;;;;;;7.78;7.15;;;;;;;;;;4966797;28;20047;-75
2024/04/17 11:50:14;;;;;;;14.02;7.10;;;;;;;;;;4963298;28;20113;-75
2024/04/17 11:52:40;;;;;;;7.88;7.07;;;;;;;;;;4944424;28;20038;-73
2024/04/17 11:55:06;;;;;;;7.85;7.10;;;;;;;;;;4965008;28;20070;-75
2024/04/17 11:57:32;;;;;;;10.80;6.82;;;;;;;;;;4961900;28;20109;-73
2024/04/17 11:59:58;;;;;;;7.53;6.93;;;;;;;;;;4943790;29;20047;-75
2024/04/17 12:02:23;;;;;;;9.77;6.57;;;;;;;;;;4965006;28;20413;-74
2024/04/17 12:04:49;;;;;;;7.90;7.20;;;;;;;;;;4961834;28;20046;-75
2024/04/17 12:07:16;;;;;;;8.60;7.68;;;;;;;;;;4962949;28;20051;-74
2024/04/17 12:09:48;;;;;;;9.68;7.82;;;;;;;;;;4962570;28;20045;-75
2024/04/17 12:12:14;;;;;;;7.95;7.20;;;;;;;;;;4952933;28;20139;-75
2024/04/17 12:14:40;;;;;;;8.52;7.75;;;;;;;;;;4963470;28;20072;-75
2024/04/17 12:17:06;;;;;;;9.18;7.20;;;;;;;;;;4966165;28;20081;-75
2024/04/17 12:19:32;;;;;;;9.70;8.80;;;;;;;;;;4958464;28;20534;-73
2024/04/17 12:21:59;;;;;;;9.35;7.32;;;;;;;;;;4967020;28;20091;-75
2024/04/17 12:26:49;;;;;;;8.27;7.47;;;;;;;;;;4960691;28;20211;-77
2024/04/17 12:27:11;;;;;;;8.68;7.75;;;;;;;;;;4967462;28;20556;-73
2024/04/17 12:29:37;;;;;;;6.85;6.30;;;;;;;;;;4965387;28;20163;-75
2024/04/17 12:32:03;;;;;;;8.32;7.53;;;;;;;;;;4967287;28;20075;-75
2024/04/17 12:34:29;;;;;;;8.00;7.22;;;;;;;;;;4962122;28;20051;-76
2024/04/17 12:36:55;;;;;;;9.65;7.55;;;;;;;;;;4949461;28;20179;-74
2024/04/17 12:39:21;;;;;;;8.25;7.55;;;;;;;;;;4966199;28;20043;-73
2024/04/17 12:41:47;;;;;;;6.97;6.38;;;;;;;;;;4967705;28;20058;-75
2024/04/17 12:44:13;;;;;;;7.65;6.63;;;;;;;;;;4944306;29;20055;-74
2024/04/17 12:46:38;;;;;;;7.82;6.38;;;;;;;;;;4961336;28;20110;-76
2024/04/17 12:49:05;;;;;;;8.98;6.57;;;;;;;;;;4963026;28;20077;-74
2024/04/17 12:51:31;;;;;;;7.35;6.65;;;;;;;;;;4974117;28;20043;-74
2024/04/17 12:53:57;;;;;;;6.65;5.78;;;;;;;;;;4963155;28;20054;-75
2024/04/17 12:56:22;;;;;;;9.77;6.95;;;;;;;;;;4964163;28;20046;-75
2024/04/17 12:59:10;;;;;;;6.90;6.15;;;;;;;;;;4941046;29;20035;-75
2024/04/17 13:01:36;;;;;;;8.35;6.60;;;;;;;;;;4962592;28;20051;-75
2024/04/17 13:04:02;;;;;;;8.20;6.43;;;;;;;;;;4946198;28;20143;-76
2024/04/17 13:06:28;;;;;;;8.55;6.00;;;;;;;;;;4949916;28;20470;-76
2024/04/17 13:08:54;;;;;;;8.50;6.68;;;;;;;;;;4972827;28;20571;-75
2024/04/17 13:11:20;;;;;;;7.70;6.82;;;;;;;;;;4973659;28;20507;-75
2024/04/17 13:13:46;;;;;;;10.63;6.82;;;;;;;;;;4952292;28;20046;-75
2024/04/17 13:16:12;;;;;;;8.20;6.53;;;;;;;;;;4961242;28;20043;-74
2024/04/17 13:18:38;;;;;;;7.85;6.75;;;;;;;;;;4971146;28;20126;-75
2024/04/17 13:21:04;;;;;;;12.00;6.38;;;;;;;;;;4954314;28;20082;-75
2024/04/17 13:23:30;;;;;;;6.95;6.35;;;;;;;;;;4958554;28;20484;-75
2024/04/17 13:25:59;;;;;;;7.13;6.43;;;;;;;;;;4973369;28;20090;-74
2024/04/17 13:28:25;;;;;;;7.22;6.53;;;;;;;;;;4951465;28;20039;-76
2024/04/17 13:31:10;;;;;;;12.93;6.50;;;;;;;;;;4954444;29;20047;-75
2024/04/17 13:33:36;;;;;;;7.28;6.28;;;;;;;;;;4967005;28;20047;-75
2024/04/17 13:36:03;;;;;;;6.65;5.97;;;;;;;;;;4949750;28;20038;-75
2024/04/17 13:38:29;;;;;;;7.95;6.82;;;;;;;;;;4946121;28;20149;-75
2024/04/17 13:40:55;;;;;;;7.40;6.28;;;;;;;;;;4951610;28;20043;-75
2024/04/17 13:43:21;;;;;;;8.05;6.57;;;;;;;;;;4952159;28;20050;-75
2024/04/17 13:45:47;;;;;;;9.93;5.70;;;;;;;;;;4961011;28;20564;-76
2024/04/17 13:48:13;;;;;;;7.38;6.03;;;;;;;;;;4948828;28;20054;-75
2024/04/17 13:50:40;;;;;;;8.75;6.07;;;;;;;;;;4964461;28;20038;-75
2024/04/17 13:53:05;;;;;;;8.10;6.00;;;;;;;;;;4931153;28;20534;-75
2024/04/17 13:55:34;;;;;;;9.73;5.47;;;;;;;;;;4952519;28;20047;-74
2024/04/17 13:58:00;;;;;;;6.20;5.63;;;;;;;;;;4985236;23;20051;-76
2024/04/17 14:00:26;;;;;;;6.55;5.63;;;;;;;;;;4951789;28;20062;-75
2024/04/17 14:02:53;;;;;;;5.88;5.38;;;;;;;;;;4966910;28;20046;-74
2024/04/17 14:05:19;;;;;;;7.50;5.72;;;;;;;;;;4962605;28;20039;-75
2024/04/17 14:07:45;;;;;;;7.63;5.22;;;;;;;;;;4950333;28;20094;-75
2024/04/17 14:10:11;;;;;;;5.55;5.05;;;;;;;;;;4966810;28;20057;-74
2024/04/17 14:12:39;;;;;;;5.70;5.18;;;;;;;;;;4951316;28;20035;-75
2024/04/17 14:15:06;;;;;;;6.95;5.50;;;;;;;;;;4970539;28;20530;-75
2024/04/17 14:17:32;;;;;;;6.57;4.78;;;;;;;;;;4967759;28;20186;-73
2024/04/17 14:19:58;;;;;;;6.35;5.70;;;;;;;;;;4969764;28;20115;-75
2024/04/17 14:22:24;;;;;;;7.45;5.25;;;;;;;;;;4969724;28;20293;-74
2024/04/17 14:24:52;;;;;;;6.95;4.47;;;;;;;;;;4947638;28;20047;-75
2024/04/17 14:27:21;;;;;;;4.78;4.32;;;;;;;;;;4965749;28;20039;-74
2024/04/17 14:29:47;;;;;;;4.50;3.95;;;;;;;;;;4961262;28;20046;-75
2024/04/17 14:32:13;;;;;;;4.10;3.08;;;;;;;;;;4932563;28;20035;-73
2024/04/17 14:34:39;;;;;;;5.50;3.85;;;;;;;;;;4937756;28;20051;-75
2024/04/17 14:37:09;;;;;;;3.90;3.30;;;;;;;;;;4974267;28;20031;-75
2024/04/17 14:39:36;;;;;;;4.43;3.25;;;;;;;;;;4934521;28;20526;-75